sensor_id;sensor_type;location;lat;lon;timestamp;P1;durP1;ratioP1;P2;durP2;ratioP2
53907;SDS011;40469;47.998;7.794;2023-08-20T00:00:40;7.03;;;4.93;;
53907;SDS011;40469;47.998;7.794;2023-08-20T00:03:11;5.97;;;4.22;;
53907;SDS011;40469;47.998;7.794;2023-08-20T00:05:36;6.50;;;4.38;;
53907;SDS011;40469;47.998;7.794;2023-08-20T00:08:01;8.23;;;4.40;;
53907;SDS011;40469;47.998;7.794;2023-08-20T00:10:27;6.10;;;4.05;;
53907;SDS011;40469;47.998;7.794;2023-08-20T00:12:52;7.37;;;4.47;;
53907;SDS011;40469;47.998;7.794;2023-08-20T00:15:18;6.60;;;4.33;;
53907;SDS011;40469;47.998;7.794;2023-08-20T00:17:44;6.43;;;3.85;;
53907;SDS011;40469;47.998;7.794;2023-08-20T00:20:10;7.38;;;4.40;;
53907;SDS011;40469;47.998;7.794;2023-08-20T00:22:38;7.68;;;4.40;;
53907;SDS011;40469;47.998;7.794;2023-08-20T00:25:03;5.40;;;4.20;;
53907;SDS011;40469;47.998;7.794;2023-08-20T00:27:32;6.28;;;4.38;;
53907;SDS011;40469;47.998;7.794;2023-08-20T00:30:00;8.27;;;4.50;;
53907;SDS011;40469;47.998;7.794;2023-08-20T00:32:26;7.70;;;4.57;;
53907;SDS011;40469;47.998;7.794;2023-08-20T00:34:51;7.97;;;4.55;;
53907;SDS011;40469;47.998;7.794;2023-08-20T00:37:16;7.15;;;4.63;;
53907;SDS011;40469;47.998;7.794;2023-08-20T00:39:41;6.15;;;4.28;;
53907;SDS011;40469;47.998;7.794;2023-08-20T00:42:07;7.97;;;4.10;;
53907;SDS011;40469;47.998;7.794;2023-08-20T00:44:32;7.90;;;4.03;;
53907;SDS011;40469;47.998;7.794;2023-08-20T00:46:58;6.60;;;4.38;;
53907;SDS011;40469;47.998;7.794;2023-08-20T00:49:25;7.20;;;4.45;;
53907;SDS011;40469;47.998;7.794;2023-08-20T00:51:50;7.15;;;4.22;;
53907;SDS011;40469;47.998;7.794;2023-08-20T00:54:15;8.60;;;4.47;;
53907;SDS011;40469;47.998;7.794;2023-08-20T00:56:41;8.80;;;4.47;;
53907;SDS011;40469;47.998;7.794;2023-08-20T00:59:07;6.57;;;4.63;;
53907;SDS011;40469;47.998;7.794;2023-08-20T01:01:32;7.93;;;4.57;;
53907;SDS011;40469;47.998;7.794;2023-08-20T01:03:57;7.80;;;4.40;;
53907;SDS011;40469;47.998;7.794;2023-08-20T01:06:26;6.83;;;4.00;;
53907;SDS011;40469;47.998;7.794;2023-08-20T01:08:59;6.88;;;4.43;;
53907;SDS011;40469;47.998;7.794;2023-08-20T01:11:29;7.28;;;4.30;;
53907;SDS011;40469;47.998;7.794;2023-08-20T01:13:55;5.93;;;4.10;;
53907;SDS011;40469;47.998;7.794;2023-08-20T01:16:20;7.80;;;4.63;;
53907;SDS011;40469;47.998;7.794;2023-08-20T01:18:46;8.23;;;4.40;;
53907;SDS011;40469;47.998;7.794;2023-08-20T01:21:29;6.25;;;4.47;;
53907;SDS011;40469;47.998;7.794;2023-08-20T01:26:35;7.15;;;4.22;;
53907;SDS011;40469;47.998;7.794;2023-08-20T01:29:05;7.95;;;4.30;;
53907;SDS011;40469;47.998;7.794;2023-08-20T01:31:31;7.15;;;4.40;;
53907;SDS011;40469;47.998;7.794;2023-08-20T01:33:57;10.52;;;4.38;;
53907;SDS011;40469;47.998;7.794;2023-08-20T01:36:22;7.65;;;4.25;;
53907;SDS011;40469;47.998;7.794;2023-08-20T01:38:47;7.10;;;4.57;;
53907;SDS011;40469;47.998;7.794;2023-08-20T01:41:13;8.82;;;4.57;;
53907;SDS011;40469;47.998;7.794;2023-08-20T01:43:38;6.77;;;4.13;;
53907;SDS011;40469;47.998;7.794;2023-08-20T01:46:04;6.57;;;4.50;;
53907;SDS011;40469;47.998;7.794;2023-08-20T01:48:29;7.88;;;4.70;;
53907;SDS011;40469;47.998;7.794;2023-08-20T01:50:54;7.70;;;4.40;;
53907;SDS011;40469;47.998;7.794;2023-08-20T01:53:19;7.10;;;4.53;;
53907;SDS011;40469;47.998;7.794;2023-08-20T01:55:45;11.10;;;5.00;;
53907;SDS011;40469;47.998;7.794;2023-08-20T01:58:10;6.32;;;4.25;;
53907;SDS011;40469;47.998;7.794;2023-08-20T02:00:35;7.77;;;4.20;;
53907;SDS011;40469;47.998;7.794;2023-08-20T02:03:01;7.33;;;4.60;;
53907;SDS011;40469;47.998;7.794;2023-08-20T02:05:26;5.83;;;4.07;;
53907;SDS011;40469;47.998;7.794;2023-08-20T02:07:51;7.10;;;4.43;;
53907;SDS011;40469;47.998;7.794;2023-08-20T02:10:16;7.57;;;4.40;;
53907;SDS011;40469;47.998;7.794;2023-08-20T02:12:41;6.53;;;4.30;;
53907;SDS011;40469;47.998;7.794;2023-08-20T02:15:07;11.15;;;5.10;;
53907;SDS011;40469;47.998;7.794;2023-08-20T02:17:32;7.93;;;4.47;;
53907;SDS011;40469;47.998;7.794;2023-08-20T02:19:58;8.43;;;4.40;;
53907;SDS011;40469;47.998;7.794;2023-08-20T02:22:23;7.13;;;4.77;;
53907;SDS011;40469;47.998;7.794;2023-08-20T02:24:48;11.32;;;4.70;;
53907;SDS011;40469;47.998;7.794;2023-08-20T02:27:13;6.13;;;4.27;;
53907;SDS011;40469;47.998;7.794;2023-08-20T02:29:38;7.10;;;3.97;;
53907;SDS011;40469;47.998;7.794;2023-08-20T02:32:04;7.30;;;4.33;;
53907;SDS011;40469;47.998;7.794;2023-08-20T02:34:29;6.07;;;4.13;;
53907;SDS011;40469;47.998;7.794;2023-08-20T02:36:54;6.43;;;4.37;;
53907;SDS011;40469;47.998;7.794;2023-08-20T02:39:20;9.03;;;4.10;;
53907;SDS011;40469;47.998;7.794;2023-08-20T02:41:45;7.65;;;4.25;;
53907;SDS011;40469;47.998;7.794;2023-08-20T02:44:10;8.23;;;4.38;;
53907;SDS011;40469;47.998;7.794;2023-08-20T02:46:36;5.80;;;3.80;;
53907;SDS011;40469;47.998;7.794;2023-08-20T02:49:03;7.22;;;4.50;;
53907;SDS011;40469;47.998;7.794;2023-08-20T02:51:28;6.83;;;4.53;;
53907;SDS011;40469;47.998;7.794;2023-08-20T02:53:53;8.50;;;4.23;;
53907;SDS011;40469;47.998;7.794;2023-08-20T02:56:18;7.50;;;3.93;;
53907;SDS011;40469;47.998;7.794;2023-08-20T02:58:44;6.97;;;4.30;;
53907;SDS011;40469;47.998;7.794;2023-08-20T03:01:17;7.90;;;4.53;;
53907;SDS011;40469;47.998;7.794;2023-08-20T03:03:42;7.72;;;4.85;;
53907;SDS011;40469;47.998;7.794;2023-08-20T03:06:08;5.60;;;4.00;;
53907;SDS011;40469;47.998;7.794;2023-08-20T03:08:33;5.78;;;4.10;;
53907;SDS011;40469;47.998;7.794;2023-08-20T03:10:58;6.23;;;4.03;;
53907;SDS011;40469;47.998;7.794;2023-08-20T03:13:23;7.33;;;4.60;;
53907;SDS011;40469;47.998;7.794;2023-08-20T03:15:49;5.32;;;3.92;;
53907;SDS011;40469;47.998;7.794;2023-08-20T03:18:14;8.33;;;4.40;;
53907;SDS011;40469;47.998;7.794;2023-08-20T03:20:39;7.13;;;4.40;;
53907;SDS011;40469;47.998;7.794;2023-08-20T03:23:04;6.60;;;3.87;;
53907;SDS011;40469;47.998;7.794;2023-08-20T03:25:29;6.33;;;3.70;;
53907;SDS011;40469;47.998;7.794;2023-08-20T03:27:55;5.70;;;3.90;;
53907;SDS011;40469;47.998;7.794;2023-08-20T03:30:20;9.02;;;4.10;;
53907;SDS011;40469;47.998;7.794;2023-08-20T03:32:45;5.63;;;3.85;;
53907;SDS011;40469;47.998;7.794;2023-08-20T03:35:10;6.30;;;4.33;;
53907;SDS011;40469;47.998;7.794;2023-08-20T03:37:36;7.65;;;4.18;;
53907;SDS011;40469;47.998;7.794;2023-08-20T03:40:01;5.63;;;3.72;;
53907;SDS011;40469;47.998;7.794;2023-08-20T03:42:27;5.82;;;3.67;;
53907;SDS011;40469;47.998;7.794;2023-08-20T03:44:52;7.33;;;4.17;;
53907;SDS011;40469;47.998;7.794;2023-08-20T03:47:17;6.77;;;4.00;;
53907;SDS011;40469;47.998;7.794;2023-08-20T03:49:45;5.68;;;3.58;;
53907;SDS011;40469;47.998;7.794;2023-08-20T03:52:10;10.43;;;3.50;;
53907;SDS011;40469;47.998;7.794;2023-08-20T03:54:36;6.67;;;4.00;;
53907;SDS011;40469;47.998;7.794;2023-08-20T03:57:01;6.20;;;4.27;;
53907;SDS011;40469;47.998;7.794;2023-08-20T03:59:26;6.37;;;4.10;;
53907;SDS011;40469;47.998;7.794;2023-08-20T04:01:51;8.10;;;5.10;;
53907;SDS011;40469;47.998;7.794;2023-08-20T04:04:16;8.30;;;5.00;;
53907;SDS011;40469;47.998;7.794;2023-08-20T04:06:42;8.80;;;4.63;;
53907;SDS011;40469;47.998;7.794;2023-08-20T04:09:07;9.10;;;4.90;;
53907;SDS011;40469;47.998;7.794;2023-08-20T04:11:34;8.13;;;4.85;;
53907;SDS011;40469;47.998;7.794;2023-08-20T04:13:59;7.17;;;4.70;;
53907;SDS011;40469;47.998;7.794;2023-08-20T04:16:24;8.70;;;4.60;;
53907;SDS011;40469;47.998;7.794;2023-08-20T04:18:49;6.60;;;4.20;;
53907;SDS011;40469;47.998;7.794;2023-08-20T04:21:15;9.77;;;5.40;;
53907;SDS011;40469;47.998;7.794;2023-08-20T04:23:40;8.13;;;4.67;;
53907;SDS011;40469;47.998;7.794;2023-08-20T04:26:06;6.80;;;4.95;;
53907;SDS011;40469;47.998;7.794;2023-08-20T04:28:31;6.93;;;5.05;;
53907;SDS011;40469;47.998;7.794;2023-08-20T04:30:57;7.90;;;4.63;;
53907;SDS011;40469;47.998;7.794;2023-08-20T04:33:22;7.53;;;4.97;;
53907;SDS011;40469;47.998;7.794;2023-08-20T04:35:51;7.43;;;4.57;;
53907;SDS011;40469;47.998;7.794;2023-08-20T04:38:16;6.85;;;4.40;;
53907;SDS011;40469;47.998;7.794;2023-08-20T04:40:41;8.60;;;4.53;;
53907;SDS011;40469;47.998;7.794;2023-08-20T04:43:06;10.53;;;5.33;;
53907;SDS011;40469;47.998;7.794;2023-08-20T04:45:32;10.13;;;5.47;;
53907;SDS011;40469;47.998;7.794;2023-08-20T04:47:57;7.43;;;4.70;;
53907;SDS011;40469;47.998;7.794;2023-08-20T04:50:22;8.07;;;4.68;;
53907;SDS011;40469;47.998;7.794;2023-08-20T04:52:47;7.78;;;5.20;;
53907;SDS011;40469;47.998;7.794;2023-08-20T04:55:13;6.63;;;4.40;;
53907;SDS011;40469;47.998;7.794;2023-08-20T04:57:40;9.95;;;4.85;;
53907;SDS011;40469;47.998;7.794;2023-08-20T05:00:05;10.57;;;5.40;;
53907;SDS011;40469;47.998;7.794;2023-08-20T05:02:31;7.57;;;5.07;;
53907;SDS011;40469;47.998;7.794;2023-08-20T05:04:57;6.03;;;4.50;;
53907;SDS011;40469;47.998;7.794;2023-08-20T05:07:23;6.90;;;4.38;;
53907;SDS011;40469;47.998;7.794;2023-08-20T05:09:49;7.60;;;4.80;;
53907;SDS011;40469;47.998;7.794;2023-08-20T05:12:14;12.18;;;4.93;;
53907;SDS011;40469;47.998;7.794;2023-08-20T05:14:39;7.33;;;4.43;;
53907;SDS011;40469;47.998;7.794;2023-08-20T05:17:05;6.90;;;4.75;;
53907;SDS011;40469;47.998;7.794;2023-08-20T05:19:30;7.97;;;4.37;;
53907;SDS011;40469;47.998;7.794;2023-08-20T05:21:55;7.50;;;3.77;;
53907;SDS011;40469;47.998;7.794;2023-08-20T05:24:23;9.55;;;4.55;;
53907;SDS011;40469;47.998;7.794;2023-08-20T05:29:52;7.68;;;4.22;;
53907;SDS011;40469;47.998;7.794;2023-08-20T05:32:17;8.23;;;4.60;;
53907;SDS011;40469;47.998;7.794;2023-08-20T05:34:43;8.30;;;4.70;;
53907;SDS011;40469;47.998;7.794;2023-08-20T05:37:08;10.23;;;4.35;;
53907;SDS011;40469;47.998;7.794;2023-08-20T05:39:37;7.45;;;4.70;;
53907;SDS011;40469;47.998;7.794;2023-08-20T05:42:03;7.25;;;4.72;;
53907;SDS011;40469;47.998;7.794;2023-08-20T05:44:28;7.68;;;4.38;;
53907;SDS011;40469;47.998;7.794;2023-08-20T05:46:54;8.40;;;4.90;;
53907;SDS011;40469;47.998;7.794;2023-08-20T05:49:19;7.63;;;5.07;;
53907;SDS011;40469;47.998;7.794;2023-08-20T05:51:44;11.05;;;4.68;;
53907;SDS011;40469;47.998;7.794;2023-08-20T05:54:10;10.50;;;5.63;;
53907;SDS011;40469;47.998;7.794;2023-08-20T05:56:35;7.60;;;5.28;;
53907;SDS011;40469;47.998;7.794;2023-08-20T05:59:00;7.67;;;4.63;;
53907;SDS011;40469;47.998;7.794;2023-08-20T06:01:26;8.97;;;4.70;;
53907;SDS011;40469;47.998;7.794;2023-08-20T06:03:51;8.40;;;4.55;;
53907;SDS011;40469;47.998;7.794;2023-08-20T06:06:16;6.37;;;4.60;;
53907;SDS011;40469;47.998;7.794;2023-08-20T06:08:41;8.60;;;5.10;;
53907;SDS011;40469;47.998;7.794;2023-08-20T06:11:06;7.80;;;4.97;;
53907;SDS011;40469;47.998;7.794;2023-08-20T06:13:32;7.10;;;4.67;;
53907;SDS011;40469;47.998;7.794;2023-08-20T06:15:57;10.33;;;5.00;;
53907;SDS011;40469;47.998;7.794;2023-08-20T06:18:22;9.30;;;4.80;;
53907;SDS011;40469;47.998;7.794;2023-08-20T06:20:47;8.27;;;4.90;;
53907;SDS011;40469;47.998;7.794;2023-08-20T06:23:12;6.60;;;4.27;;
53907;SDS011;40469;47.998;7.794;2023-08-20T06:25:38;8.32;;;4.72;;
53907;SDS011;40469;47.998;7.794;2023-08-20T06:28:03;8.93;;;4.90;;
53907;SDS011;40469;47.998;7.794;2023-08-20T06:30:28;6.90;;;4.80;;
53907;SDS011;40469;47.998;7.794;2023-08-20T06:32:54;8.45;;;4.90;;
53907;SDS011;40469;47.998;7.794;2023-08-20T06:35:19;11.57;;;5.03;;
53907;SDS011;40469;47.998;7.794;2023-08-20T06:37:44;9.63;;;5.23;;
53907;SDS011;40469;47.998;7.794;2023-08-20T06:40:09;8.57;;;5.03;;
53907;SDS011;40469;47.998;7.794;2023-08-20T06:42:35;9.32;;;5.30;;
53907;SDS011;40469;47.998;7.794;2023-08-20T06:45:00;7.93;;;5.20;;
53907;SDS011;40469;47.998;7.794;2023-08-20T06:47:25;9.57;;;5.50;;
53907;SDS011;40469;47.998;7.794;2023-08-20T06:49:51;9.48;;;5.15;;
53907;SDS011;40469;47.998;7.794;2023-08-20T06:52:16;10.10;;;5.28;;
53907;SDS011;40469;47.998;7.794;2023-08-20T06:54:41;11.18;;;5.78;;
53907;SDS011;40469;47.998;7.794;2023-08-20T06:57:07;8.07;;;5.03;;
53907;SDS011;40469;47.998;7.794;2023-08-20T06:59:32;6.83;;;4.63;;
53907;SDS011;40469;47.998;7.794;2023-08-20T07:01:57;7.77;;;4.80;;
53907;SDS011;40469;47.998;7.794;2023-08-20T07:04:22;5.93;;;4.67;;
53907;SDS011;40469;47.998;7.794;2023-08-20T07:06:47;7.23;;;5.07;;
53907;SDS011;40469;47.998;7.794;2023-08-20T07:09:13;9.70;;;5.32;;
53907;SDS011;40469;47.998;7.794;2023-08-20T07:11:38;8.10;;;5.07;;
53907;SDS011;40469;47.998;7.794;2023-08-20T07:14:03;9.27;;;5.23;;
53907;SDS011;40469;47.998;7.794;2023-08-20T07:16:28;12.48;;;5.47;;
53907;SDS011;40469;47.998;7.794;2023-08-20T07:18:54;7.25;;;5.07;;
53907;SDS011;40469;47.998;7.794;2023-08-20T07:21:19;10.17;;;5.13;;
53907;SDS011;40469;47.998;7.794;2023-08-20T07:23:44;8.33;;;5.07;;
53907;SDS011;40469;47.998;7.794;2023-08-20T07:26:10;9.20;;;5.60;;
53907;SDS011;40469;47.998;7.794;2023-08-20T07:28:37;8.55;;;5.60;;
53907;SDS011;40469;47.998;7.794;2023-08-20T07:31:20;9.93;;;5.07;;
53907;SDS011;40469;47.998;7.794;2023-08-20T07:33:46;8.80;;;5.27;;
53907;SDS011;40469;47.998;7.794;2023-08-20T07:36:12;8.48;;;5.32;;
53907;SDS011;40469;47.998;7.794;2023-08-20T07:38:38;8.50;;;5.20;;
53907;SDS011;40469;47.998;7.794;2023-08-20T07:41:06;8.40;;;5.18;;
53907;SDS011;40469;47.998;7.794;2023-08-20T07:43:31;8.07;;;4.75;;
53907;SDS011;40469;47.998;7.794;2023-08-20T07:45:57;11.40;;;5.75;;
53907;SDS011;40469;47.998;7.794;2023-08-20T07:48:22;8.50;;;5.35;;
53907;SDS011;40469;47.998;7.794;2023-08-20T07:50:47;7.53;;;5.57;;
53907;SDS011;40469;47.998;7.794;2023-08-20T07:53:12;9.03;;;5.23;;
53907;SDS011;40469;47.998;7.794;2023-08-20T07:55:37;8.40;;;5.40;;
53907;SDS011;40469;47.998;7.794;2023-08-20T07:58:03;8.15;;;4.80;;
53907;SDS011;40469;47.998;7.794;2023-08-20T08:00:28;9.05;;;5.53;;
53907;SDS011;40469;47.998;7.794;2023-08-20T08:02:53;9.57;;;5.53;;
53907;SDS011;40469;47.998;7.794;2023-08-20T08:05:18;11.63;;;5.70;;
53907;SDS011;40469;47.998;7.794;2023-08-20T08:07:44;7.20;;;4.83;;
53907;SDS011;40469;47.998;7.794;2023-08-20T08:10:09;9.23;;;5.17;;
53907;SDS011;40469;47.998;7.794;2023-08-20T08:12:34;10.10;;;5.20;;
53907;SDS011;40469;47.998;7.794;2023-08-20T08:14:59;8.00;;;5.60;;
53907;SDS011;40469;47.998;7.794;2023-08-20T08:17:25;8.93;;;5.27;;
53907;SDS011;40469;47.998;7.794;2023-08-20T08:19:50;12.20;;;5.67;;
53907;SDS011;40469;47.998;7.794;2023-08-20T08:22:18;7.50;;;5.03;;
53907;SDS011;40469;47.998;7.794;2023-08-20T08:24:44;7.33;;;5.00;;
53907;SDS011;40469;47.998;7.794;2023-08-20T08:27:09;8.82;;;5.15;;
53907;SDS011;40469;47.998;7.794;2023-08-20T08:29:35;11.23;;;5.97;;
53907;SDS011;40469;47.998;7.794;2023-08-20T08:32:00;9.27;;;5.00;;
53907;SDS011;40469;47.998;7.794;2023-08-20T08:34:25;10.30;;;5.53;;
53907;SDS011;40469;47.998;7.794;2023-08-20T08:36:50;8.27;;;5.17;;
53907;SDS011;40469;47.998;7.794;2023-08-20T08:39:16;10.63;;;5.87;;
53907;SDS011;40469;47.998;7.794;2023-08-20T08:41:41;9.68;;;4.95;;
53907;SDS011;40469;47.998;7.794;2023-08-20T08:44:06;7.05;;;5.15;;
53907;SDS011;40469;47.998;7.794;2023-08-20T08:46:33;8.60;;;4.82;;
53907;SDS011;40469;47.998;7.794;2023-08-20T08:49:00;15.35;;;5.93;;
53907;SDS011;40469;47.998;7.794;2023-08-20T08:51:25;6.73;;;4.87;;
53907;SDS011;40469;47.998;7.794;2023-08-20T08:53:51;6.90;;;5.22;;
53907;SDS011;40469;47.998;7.794;2023-08-20T08:56:17;7.20;;;4.63;;
53907;SDS011;40469;47.998;7.794;2023-08-20T08:58:42;9.87;;;6.23;;
53907;SDS011;40469;47.998;7.794;2023-08-20T09:01:07;15.87;;;9.03;;
53907;SDS011;40469;47.998;7.794;2023-08-20T09:03:32;9.60;;;5.70;;
53907;SDS011;40469;47.998;7.794;2023-08-20T09:05:59;7.75;;;4.93;;
53907;SDS011;40469;47.998;7.794;2023-08-20T09:08:29;9.40;;;5.95;;
53907;SDS011;40469;47.998;7.794;2023-08-20T09:11:00;9.50;;;5.10;;
53907;SDS011;40469;47.998;7.794;2023-08-20T09:13:32;7.43;;;5.22;;
53907;SDS011;40469;47.998;7.794;2023-08-20T09:15:57;5.90;;;4.65;;
53907;SDS011;40469;47.998;7.794;2023-08-20T09:18:22;9.33;;;5.30;;
53907;SDS011;40469;47.998;7.794;2023-08-20T09:20:48;7.77;;;4.97;;
53907;SDS011;40469;47.998;7.794;2023-08-20T09:23:17;7.25;;;5.00;;
53907;SDS011;40469;47.998;7.794;2023-08-20T09:25:42;9.93;;;4.95;;
53907;SDS011;40469;47.998;7.794;2023-08-20T09:28:08;6.60;;;4.75;;
53907;SDS011;40469;47.998;7.794;2023-08-20T09:30:33;12.98;;;5.82;;
53907;SDS011;40469;47.998;7.794;2023-08-20T09:33:02;7.03;;;4.50;;
53907;SDS011;40469;47.998;7.794;2023-08-20T09:35:28;6.32;;;4.47;;
53907;SDS011;40469;47.998;7.794;2023-08-20T09:37:58;6.63;;;4.90;;
53907;SDS011;40469;47.998;7.794;2023-08-20T09:40:23;6.65;;;4.88;;
53907;SDS011;40469;47.998;7.794;2023-08-20T09:42:48;7.73;;;4.60;;
53907;SDS011;40469;47.998;7.794;2023-08-20T09:45:13;6.40;;;4.55;;
53907;SDS011;40469;47.998;7.794;2023-08-20T09:47:39;6.38;;;4.60;;
53907;SDS011;40469;47.998;7.794;2023-08-20T09:50:05;8.85;;;4.40;;
53907;SDS011;40469;47.998;7.794;2023-08-20T09:52:34;6.93;;;4.55;;
53907;SDS011;40469;47.998;7.794;2023-08-20T09:55:11;7.80;;;3.83;;
53907;SDS011;40469;47.998;7.794;2023-08-20T09:57:39;6.60;;;4.07;;
53907;SDS011;40469;47.998;7.794;2023-08-20T10:00:04;9.02;;;4.20;;
53907;SDS011;40469;47.998;7.794;2023-08-20T10:02:36;8.13;;;4.60;;
53907;SDS011;40469;47.998;7.794;2023-08-20T10:05:02;7.68;;;4.30;;
53907;SDS011;40469;47.998;7.794;2023-08-20T10:07:28;8.90;;;4.63;;
53907;SDS011;40469;47.998;7.794;2023-08-20T10:09:56;7.70;;;4.03;;
53907;SDS011;40469;47.998;7.794;2023-08-20T10:12:25;8.68;;;4.68;;
53907;SDS011;40469;47.998;7.794;2023-08-20T10:14:50;6.53;;;4.03;;
53907;SDS011;40469;47.998;7.794;2023-08-20T10:17:16;5.88;;;4.13;;
53907;SDS011;40469;47.998;7.794;2023-08-20T10:19:42;6.70;;;3.75;;
53907;SDS011;40469;47.998;7.794;2023-08-20T10:22:08;4.97;;;3.72;;
53907;SDS011;40469;47.998;7.794;2023-08-20T10:25:06;6.45;;;3.92;;
53907;SDS011;40469;47.998;7.794;2023-08-20T10:27:28;6.32;;;4.10;;
53907;SDS011;40469;47.998;7.794;2023-08-20T10:29:56;7.88;;;4.28;;
53907;SDS011;40469;47.998;7.794;2023-08-20T10:35:22;9.65;;;4.40;;
53907;SDS011;40469;47.998;7.794;2023-08-20T10:43:23;5.53;;;3.85;;
53907;SDS011;40469;47.998;7.794;2023-08-20T10:46:01;7.85;;;3.70;;
53907;SDS011;40469;47.998;7.794;2023-08-20T10:48:26;8.02;;;3.83;;
53907;SDS011;40469;47.998;7.794;2023-08-20T10:50:52;6.95;;;4.15;;
53907;SDS011;40469;47.998;7.794;2023-08-20T10:53:17;7.18;;;4.40;;
53907;SDS011;40469;47.998;7.794;2023-08-20T10:55:47;6.43;;;4.05;;
53907;SDS011;40469;47.998;7.794;2023-08-20T10:58:13;5.95;;;3.72;;
53907;SDS011;40469;47.998;7.794;2023-08-20T11:00:38;7.35;;;3.90;;
53907;SDS011;40469;47.998;7.794;2023-08-20T11:03:03;6.63;;;3.40;;
53907;SDS011;40469;47.998;7.794;2023-08-20T11:05:29;5.82;;;4.10;;
53907;SDS011;40469;47.998;7.794;2023-08-20T11:07:54;5.47;;;3.63;;
53907;SDS011;40469;47.998;7.794;2023-08-20T11:10:19;4.73;;;3.50;;
53907;SDS011;40469;47.998;7.794;2023-08-20T11:12:46;5.80;;;3.60;;
53907;SDS011;40469;47.998;7.794;2023-08-20T11:17:31;4.65;;;3.80;;
53907;SDS011;40469;47.998;7.794;2023-08-20T11:19:57;7.95;;;4.00;;
53907;SDS011;40469;47.998;7.794;2023-08-20T11:22:22;5.93;;;3.80;;
53907;SDS011;40469;47.998;7.794;2023-08-20T11:24:47;5.82;;;3.58;;
53907;SDS011;40469;47.998;7.794;2023-08-20T11:27:13;7.03;;;3.65;;
53907;SDS011;40469;47.998;7.794;2023-08-20T11:29:41;9.07;;;3.63;;
53907;SDS011;40469;47.998;7.794;2023-08-20T11:32:08;5.30;;;3.65;;
53907;SDS011;40469;47.998;7.794;2023-08-20T11:34:34;5.05;;;3.55;;
53907;SDS011;40469;47.998;7.794;2023-08-20T11:37:00;6.53;;;3.53;;
53907;SDS011;40469;47.998;7.794;2023-08-20T11:39:25;8.15;;;4.30;;
53907;SDS011;40469;47.998;7.794;2023-08-20T11:41:50;6.25;;;4.25;;
53907;SDS011;40469;47.998;7.794;2023-08-20T11:44:19;6.18;;;4.13;;
53907;SDS011;40469;47.998;7.794;2023-08-20T11:46:46;6.35;;;4.00;;
53907;SDS011;40469;47.998;7.794;2023-08-20T11:49:12;8.40;;;5.32;;
53907;SDS011;40469;47.998;7.794;2023-08-20T11:51:42;7.40;;;4.38;;
53907;SDS011;40469;47.998;7.794;2023-08-20T11:54:16;9.15;;;4.88;;
53907;SDS011;40469;47.998;7.794;2023-08-20T11:56:49;5.55;;;3.92;;
53907;SDS011;40469;47.998;7.794;2023-08-20T11:59:16;8.93;;;4.07;;
53907;SDS011;40469;47.998;7.794;2023-08-20T12:01:43;5.82;;;3.72;;
53907;SDS011;40469;47.998;7.794;2023-08-20T12:04:16;5.65;;;3.85;;
53907;SDS011;40469;47.998;7.794;2023-08-20T12:06:41;6.53;;;4.20;;
53907;SDS011;40469;47.998;7.794;2023-08-20T12:09:28;5.20;;;3.88;;
53907;SDS011;40469;47.998;7.794;2023-08-20T12:11:54;6.70;;;3.85;;
53907;SDS011;40469;47.998;7.794;2023-08-20T12:14:23;6.40;;;3.83;;
53907;SDS011;40469;47.998;7.794;2023-08-20T12:16:49;6.45;;;4.55;;
53907;SDS011;40469;47.998;7.794;2023-08-20T12:19:17;6.75;;;4.57;;
53907;SDS011;40469;47.998;7.794;2023-08-20T12:21:43;8.15;;;4.25;;
53907;SDS011;40469;47.998;7.794;2023-08-20T12:24:09;7.55;;;3.78;;
53907;SDS011;40469;47.998;7.794;2023-08-20T12:26:35;7.00;;;3.80;;
53907;SDS011;40469;47.998;7.794;2023-08-20T12:29:01;6.93;;;3.83;;
53907;SDS011;40469;47.998;7.794;2023-08-20T12:31:26;5.25;;;3.72;;
53907;SDS011;40469;47.998;7.794;2023-08-20T12:33:52;5.03;;;3.45;;
53907;SDS011;40469;47.998;7.794;2023-08-20T12:36:17;5.13;;;3.40;;
53907;SDS011;40469;47.998;7.794;2023-08-20T12:38:42;5.80;;;4.07;;
53907;SDS011;40469;47.998;7.794;2023-08-20T12:41:08;6.60;;;3.90;;
53907;SDS011;40469;47.998;7.794;2023-08-20T12:43:33;6.70;;;3.78;;
53907;SDS011;40469;47.998;7.794;2023-08-20T12:45:59;4.40;;;3.45;;
53907;SDS011;40469;47.998;7.794;2023-08-20T12:48:24;6.30;;;3.60;;
53907;SDS011;40469;47.998;7.794;2023-08-20T12:50:49;8.40;;;3.05;;
53907;SDS011;40469;47.998;7.794;2023-08-20T12:53:15;6.30;;;3.50;;
53907;SDS011;40469;47.998;7.794;2023-08-20T12:55:40;6.15;;;3.47;;
53907;SDS011;40469;47.998;7.794;2023-08-20T12:58:05;4.68;;;3.63;;
53907;SDS011;40469;47.998;7.794;2023-08-20T13:00:31;5.32;;;3.85;;
53907;SDS011;40469;47.998;7.794;2023-08-20T13:02:59;7.55;;;3.60;;
53907;SDS011;40469;47.998;7.794;2023-08-20T13:05:25;5.90;;;3.83;;
53907;SDS011;40469;47.998;7.794;2023-08-20T13:07:51;7.40;;;3.47;;
53907;SDS011;40469;47.998;7.794;2023-08-20T13:10:17;6.85;;;3.47;;
53907;SDS011;40469;47.998;7.794;2023-08-20T13:12:46;5.20;;;3.58;;
53907;SDS011;40469;47.998;7.794;2023-08-20T13:15:14;5.72;;;3.70;;
53907;SDS011;40469;47.998;7.794;2023-08-20T13:17:42;5.75;;;3.45;;
53907;SDS011;40469;47.998;7.794;2023-08-20T13:20:07;6.70;;;4.03;;
53907;SDS011;40469;47.998;7.794;2023-08-20T13:22:33;7.10;;;3.85;;
53907;SDS011;40469;47.998;7.794;2023-08-20T13:24:58;4.85;;;3.22;;
53907;SDS011;40469;47.998;7.794;2023-08-20T13:27:24;5.60;;;3.55;;
53907;SDS011;40469;47.998;7.794;2023-08-20T13:29:49;9.27;;;3.47;;
53907;SDS011;40469;47.998;7.794;2023-08-20T13:32:14;5.05;;;3.35;;
53907;SDS011;40469;47.998;7.794;2023-08-20T13:34:40;6.05;;;3.55;;
53907;SDS011;40469;47.998;7.794;2023-08-20T13:37:06;6.43;;;3.40;;
53907;SDS011;40469;47.998;7.794;2023-08-20T13:39:31;4.82;;;3.25;;
53907;SDS011;40469;47.998;7.794;2023-08-20T13:41:56;4.53;;;3.40;;
53907;SDS011;40469;47.998;7.794;2023-08-20T13:44:22;5.55;;;3.60;;
53907;SDS011;40469;47.998;7.794;2023-08-20T13:46:47;6.95;;;3.30;;
53907;SDS011;40469;47.998;7.794;2023-08-20T13:49:12;10.85;;;4.05;;
53907;SDS011;40469;47.998;7.794;2023-08-20T13:51:38;6.18;;;3.20;;
53907;SDS011;40469;47.998;7.794;2023-08-20T13:54:03;4.45;;;3.33;;
53907;SDS011;40469;47.998;7.794;2023-08-20T13:56:30;6.60;;;3.75;;
53907;SDS011;40469;47.998;7.794;2023-08-20T13:58:55;5.45;;;3.40;;
53907;SDS011;40469;47.998;7.794;2023-08-20T14:01:21;4.38;;;3.17;;
53907;SDS011;40469;47.998;7.794;2023-08-20T14:03:47;9.73;;;4.10;;
53907;SDS011;40469;47.998;7.794;2023-08-20T14:06:12;6.70;;;3.60;;
53907;SDS011;40469;47.998;7.794;2023-08-20T14:08:38;5.68;;;3.20;;
53907;SDS011;40469;47.998;7.794;2023-08-20T14:11:03;5.05;;;3.35;;
53907;SDS011;40469;47.998;7.794;2023-08-20T14:13:28;5.32;;;3.70;;
53907;SDS011;40469;47.998;7.794;2023-08-20T14:15:54;4.47;;;3.28;;
53907;SDS011;40469;47.998;7.794;2023-08-20T14:18:19;7.07;;;3.05;;
53907;SDS011;40469;47.998;7.794;2023-08-20T14:20:45;8.15;;;3.42;;
53907;SDS011;40469;47.998;7.794;2023-08-20T14:23:11;7.20;;;3.60;;
53907;SDS011;40469;47.998;7.794;2023-08-20T14:25:36;7.13;;;3.70;;
53907;SDS011;40469;47.998;7.794;2023-08-20T14:28:02;5.70;;;3.17;;
53907;SDS011;40469;47.998;7.794;2023-08-20T14:30:27;4.10;;;3.38;;
53907;SDS011;40469;47.998;7.794;2023-08-20T14:32:52;5.43;;;3.30;;
53907;SDS011;40469;47.998;7.794;2023-08-20T14:35:18;5.72;;;2.95;;
53907;SDS011;40469;47.998;7.794;2023-08-20T14:37:45;7.45;;;3.63;;
53907;SDS011;40469;47.998;7.794;2023-08-20T14:40:10;6.25;;;3.80;;
53907;SDS011;40469;47.998;7.794;2023-08-20T14:42:36;5.10;;;3.10;;
53907;SDS011;40469;47.998;7.794;2023-08-20T14:45:01;3.50;;;2.75;;
53907;SDS011;40469;47.998;7.794;2023-08-20T14:47:28;5.07;;;3.38;;
53907;SDS011;40469;47.998;7.794;2023-08-20T14:49:54;5.18;;;3.33;;
53907;SDS011;40469;47.998;7.794;2023-08-20T14:52:19;5.43;;;3.20;;
53907;SDS011;40469;47.998;7.794;2023-08-20T14:54:45;7.32;;;3.53;;